Strona główna
METAR-TAF:

METAR-TAF

Lotnisko :

Devils Lake, Dakota Północna, Stany Zjednoczone

Szerokość geograficzna: 48-07N, Długość geograficzna: 098-55W, wysokość: 443 m

Aktualna obserwacja pogody

Raport powstał 35 minut temu, godzina 00:56 UTC
Wiatr 4 kt od północno-północny wschód
Temperatura -27°C
Wilgotność 83%
Ciśnienie 1027 hPa
Widzialność: 16.1 km
bezchmurnie

METAR: KDVL 270056Z AUTO 03004KT 10SM CLR M27/M29 A3034 RMK AO2 SLP864 T12721294 FZRANO

czas: 19:31 (01:31 UTC)

Prognoza

Raport powstał 1 godzina i 58 minut temu, godzina 23:33 UTC
Prognoza ważna od 27 godzina 00 UTC do 27 godzina 24 UTC
Wiatr 5 kt od północny wschód
Widzialność: 10 km
bezchmurnie
Od 27 godzina 1200 UTC
Wiatr 7 kt od wschodnio-południowy wschód
Widzialność: 10 km
Przerywane chmury na wysokości 4500 ft
Od 27 godzina 2000 UTC
Wiatr 12 kt od południowy wschód
Widzialność: 10 km
Przerywane chmury na wysokości 2500 ft

TAF: KDVL 262333Z 2700/2724 04005KT P6SM SKC FM271200 11007KT P6SM BKN045 FM272000 13012KT P6SM BKN025

Obserwacja i prognoza pogody dla ponad 4000 lotnisk (raport METAR i TAF).

Dostępne stacje oznaczono żółtymi i czerwonymi punktami na mapie.

Najedź kursorem aby zobaczyć nazwę stacji.

Kliknij aby zobaczyć obserwacje i prognozy pogody.

Aby zmienić mapę: kliknij na zielony przycisk z czarnym krzyżykiem, aby powiększyć; na zielony przycisk z myślnikiem, aby pomniejszyć; na zielone strzałki, aby przejść do map sąsiednich.


METAR-TAF: